Aérodrome :
LOGIN :

S'inscrire | Disclaimer

   EN    FR    IT 

 










Légende :    VFR   VFR Marginal   IFR   IFR Intensif   IFR Très Intensif
Visi : 
Plafond : 
>= 8 km
>= 3000ft
5 à 8 km
1000 à 3000 ft
1500m à 5 km
500 à 1000 ft
800 à 1500m
200 à 500 ft
< 800m
< 200 ft
Symboles :   Orages  Brouillard  Fortes neiges  Fortes précipitations  Vent > 20 kt
SIGMETs :   Divers  Orages  Givrage  Turbulence  Onde Orograph.  Cendres Volcan.







- Altitude de l'aérodrome : 83 ft
- Code IATA : LHR
- Voir les cartes d'approche


EGLL - London Heathrow

DERNIER METAR :
  • 211020Z AUTO 09008KT 060V130 9999 NCD 20/08 Q1013

METARs EXPIRÉS :
  • 210950Z AUTO 11009KT 9999 NCD 19/08 Q1014
  • 210920Z AUTO 10010KT 9999 NCD 18/08 Q1014
  • 210850Z AUTO 09010KT 9999 NCD 17/08 Q1014 NOSIG
  • 210820Z AUTO 10010KT 9999 NCD 16/08 Q1014 NOSIG
  • 210750Z AUTO 10010KT 9999 NCD 15/07 Q1014

TAF TAF EGLL
Valide du 21 à 06h jusqu'au 22 à 12h UTC


210457Z 2106/2212 12008KT CAVOK
PROB30
TEMPO 2201/2210 7000 SHRA BKN040
Pas de NOTAMs connus pour ce terrain.



MET'MAP, la Météo Aéronautique d'un coup d'oeil ! - Copyright ORBIFLY Décembre 2007 - Disclaimer

ORBIFLY MET'MAP TEAM :

Programmation & Développement : Alexandra Zaïnal
Conception & Développement : Baudouin d'Aumeries
Co-Programmation & Développement : Marc-Olivier Méhu
Soutien technique & logistique : Manuel Goepfert

Contact : metmap@orbifly.com




SOURCES & CREDITS :

   NOAA